Time;durP1;ratioP1;P1;durP2;ratioP2;P2;SDS_P1;SDS_P2;PMS_P1;PMS_P2;Temp;Humidity;BMP_temperature;BMP_pressure;BME280_temperature;BME280_humidity;BME280_pressure;Samples;Min_cycle;Max_cycle;Signal;HPM_P1;HPM_P2
2022/09/23 00:01:33;;;;;;;7.10;4.68;;;;;;;7.15;52.60;101854.59;5006893;28;20069;-67
2022/09/23 00:03:59;;;;;;;6.90;4.85;;;;;;;7.11;52.73;101858.13;5009127;28;20041;-67
2022/09/23 00:06:27;;;;;;;9.02;4.82;;;;;;;7.05;52.83;101853.84;5011103;28;20563;-68
2022/09/23 00:08:53;;;;;;;6.00;4.38;;;;;;;7.08;52.94;101852.94;5012814;28;20049;-68
2022/09/23 00:11:24;;;;;;;6.63;4.72;;;;;;;7.09;52.72;101849.47;5011789;28;20049;-68
2022/09/23 00:13:52;;;;;;;6.27;5.60;;;;;;;7.06;53.01;101854.69;5005914;28;20037;-68
2022/09/23 00:16:21;;;;;;;6.75;4.43;;;;;;;7.08;53.14;101845.13;5011847;28;20025;-67
2022/09/23 00:18:49;;;;;;;4.90;4.47;;;;;;;7.07;52.55;101846.03;5006469;28;20041;-70
2022/09/23 00:21:15;;;;;;;7.45;4.88;;;;;;;7.02;52.77;101838.28;5010154;28;20953;-72
2022/09/23 00:23:42;;;;;;;5.25;4.75;;;;;;;6.99;53.11;101837.44;5008698;28;20048;-73
2022/09/23 00:26:10;;;;;;;5.95;4.75;;;;;;;6.93;53.32;101837.47;5000872;28;20030;-72
2022/09/23 00:28:37;;;;;;;5.45;4.82;;;;;;;6.90;53.42;101840.97;5007661;28;20037;-73
2022/09/23 00:31:08;;;;;;;7.18;4.90;;;;;;;6.87;53.68;101828.88;5013874;28;20055;-72
2022/09/23 00:33:34;;;;;;;7.65;4.85;;;;;;;6.90;53.34;101833.19;5007836;28;20041;-71
2022/09/23 00:36:00;;;;;;;6.65;5.32;;;;;;;6.91;53.54;101822.78;5016457;28;20029;-72
2022/09/23 00:38:26;;;;;;;5.95;5.28;;;;;;;7.00;53.33;101818.34;5006200;28;20129;-71
2022/09/23 00:40:52;;;;;;;12.18;6.18;;;;;;;6.92;53.50;101828.84;5015744;28;20033;-72
2022/09/23 00:43:17;;;;;;;11.82;5.57;;;;;;;6.95;53.22;101825.34;5009352;28;20049;-71
2022/09/23 00:45:47;;;;;;;5.70;4.85;;;;;;;7.02;53.59;101827.88;5008237;28;20576;-72
2022/09/23 00:48:18;;;;;;;8.27;5.20;;;;;;;7.18;53.12;101825.97;5014740;28;20038;-70
2022/09/23 00:50:49;;;;;;;7.40;5.10;;;;;;;7.28;53.08;101819.78;5012264;28;20029;-70
2022/09/23 00:53:20;;;;;;;6.82;6.13;;;;;;;7.31;52.44;101824.97;5011096;28;20041;-70
2022/09/23 00:55:56;;;;;;;6.05;5.20;;;;;;;7.41;52.64;101819.66;4997453;28;20025;-70
2022/09/23 00:58:30;;;;;;;5.63;5.05;;;;;;;7.29;52.29;101815.47;5007956;28;20046;-70
2022/09/23 01:00:58;;;;;;;7.15;5.57;;;;;;;7.42;52.19;101809.25;5012018;28;20037;-71
2022/09/23 01:03:24;;;;;;;7.82;4.97;;;;;;;7.36;52.36;101816.25;5010358;28;20038;-73
2022/09/23 01:05:51;;;;;;;7.57;5.05;;;;;;;7.38;52.17;101814.47;5009083;28;20080;-73
2022/09/23 01:08:17;;;;;;;10.82;5.68;;;;;;;7.38;51.88;101820.56;5010214;28;20457;-73
2022/09/23 01:10:58;;;;;;;9.00;6.45;;;;;;;7.31;52.01;101816.28;5009964;28;20037;-73
2022/09/23 01:13:37;;;;;;;8.02;4.70;;;;;;;7.30;51.83;101812.84;4998017;28;20053;-75
2022/09/23 01:16:07;;;;;;;5.90;5.15;;;;;;;7.27;52.24;101810.28;5011444;28;20032;-73
2022/09/23 01:18:52;;;;;;;6.97;5.28;;;;;;;7.23;52.28;101808.59;5014004;28;20040;-73
2022/09/23 01:21:48;;;;;;;8.15;6.50;;;;;;;7.19;52.00;101804.28;5016481;28;20056;-72
2022/09/23 01:24:45;;;;;;;9.75;5.28;;;;;;;7.19;52.27;101793.88;5010828;28;20513;-73
2022/09/23 01:27:22;;;;;;;9.65;6.13;;;;;;;7.15;52.35;101797.41;5015257;28;20045;-69
2022/09/23 01:30:15;;;;;;;8.80;5.35;;;;;;;7.22;52.62;101793.00;5008675;28;20122;-69
2022/09/23 01:32:55;;;;;;;7.88;6.40;;;;;;;7.19;51.95;101791.28;5008823;28;20053;-71
2022/09/23 01:35:34;;;;;;;7.78;5.75;;;;;;;7.21;52.00;101786.94;5030658;28;20613;-70
2022/09/23 01:38:21;;;;;;;5.53;4.82;;;;;;;7.16;52.11;101788.75;5006973;28;20121;-70
2022/09/23 01:40:58;;;;;;;5.80;5.10;;;;;;;7.13;52.13;101788.75;5008253;28;20025;-70
2022/09/23 01:43:39;;;;;;;8.02;4.82;;;;;;;7.17;52.01;101780.03;5008695;28;20045;-70
2022/09/23 01:46:10;;;;;;;6.68;4.85;;;;;;;7.15;51.83;101787.00;5010274;28;20520;-70
2022/09/23 01:48:49;;;;;;;7.65;5.43;;;;;;;7.06;52.22;101787.94;5006639;28;20480;-70
2022/09/23 01:51:24;;;;;;;7.13;5.10;;;;;;;7.06;52.23;101777.56;5012552;28;20585;-70
2022/09/23 01:53:49;;;;;;;9.80;5.53;;;;;;;7.13;51.90;101770.56;5010499;28;20030;-70
2022/09/23 01:56:29;;;;;;;7.22;5.55;;;;;;;7.03;52.57;101774.16;5009829;28;20643;-71
2022/09/23 01:59:08;;;;;;;5.50;4.47;;;;;;;6.97;52.53;101776.81;5008880;28;20069;-70
2022/09/23 02:01:44;;;;;;;7.68;5.82;;;;;;;6.99;52.69;101773.31;5032940;28;20037;-70
2022/09/23 02:04:17;;;;;;;9.50;5.75;;;;;;;7.03;52.81;101771.53;5015840;28;20039;-72
2022/09/23 02:06:51;;;;;;;9.32;5.63;;;;;;;7.02;52.60;101775.00;4998614;28;20040;-75
2022/09/23 02:09:23;;;;;;;7.15;5.50;;;;;;;7.03;52.63;101768.94;5013453;28;20029;-73
2022/09/23 02:11:51;;;;;;;;;;;;;;;7.06;52.61;101768.91;5011658;28;20191;-71
2022/09/23 02:14:37;;;;;;;8.80;5.20;;;;;;;7.08;52.42;101759.34;5018184;28;19913;-69
2022/09/23 02:17:09;;;;;;;11.50;5.63;;;;;;;7.02;52.44;101757.69;5011448;28;20511;-70
2022/09/23 02:19:47;;;;;;;8.68;6.28;;;;;;;6.96;52.74;101760.34;5010284;28;20038;-69
2022/09/23 02:22:25;;;;;;;7.28;5.50;;;;;;;6.93;52.48;101762.13;5011871;28;20045;-71
2022/09/23 02:24:50;;;;;;;10.73;6.10;;;;;;;6.86;53.06;101762.19;5013772;28;20129;-73
2022/09/23 02:27:38;;;;;;;10.02;6.15;;;;;;;6.88;53.19;101760.41;5011356;28;20041;-74
2022/09/23 02:30:11;;;;;;;9.02;6.13;;;;;;;6.91;52.91;101757.81;5012202;28;20057;-72
2022/09/23 02:33:03;;;;;;;8.20;5.65;;;;;;;6.96;52.96;101759.50;5012810;28;20065;-73
2022/09/23 02:35:35;;;;;;;7.60;5.70;;;;;;;6.92;52.82;101753.47;5033087;28;20073;-73
2022/09/23 02:38:28;;;;;;;7.95;5.18;;;;;;;6.93;52.95;101749.13;5017743;28;20824;-73
2022/09/23 02:41:21;;;;;;;6.55;5.10;;;;;;;6.98;52.77;101736.97;5013304;28;20041;-72
2022/09/23 02:43:53;;;;;;;7.63;5.85;;;;;;;6.98;52.39;101742.16;5015477;28;20049;-73
2022/09/23 02:46:20;;;;;;;7.00;5.40;;;;;;;6.95;52.69;101742.16;5014168;28;20029;-73
2022/09/23 02:48:52;;;;;;;7.93;6.03;;;;;;;7.04;52.41;101742.06;5015567;28;20061;-72
2022/09/23 02:51:18;;;;;;;;;;;;;;;7.02;52.29;101734.31;5015651;28;20032;-71
2022/09/23 02:53:44;;;;;;;10.18;5.57;;;;;;;6.98;52.33;101731.75;5009049;28;20305;-71
2022/09/23 02:56:19;;;;;;;9.23;6.10;;;;;;;7.01;52.48;101731.72;5013883;28;20022;-72
2022/09/23 02:58:48;;;;;;;8.48;5.72;;;;;;;6.99;52.59;101734.31;5031188;28;20061;-72
2022/09/23 03:01:30;;;;;;;6.07;4.97;;;;;;;6.99;52.46;101723.06;5020132;28;20108;-72
2022/09/23 03:04:24;;;;;;;14.35;5.75;;;;;;;7.00;52.39;101724.78;5009758;28;21002;-72
2022/09/23 03:07:31;;;;;;;8.07;5.35;;;;;;;6.96;52.42;101723.13;5030201;28;27129;-72
2022/09/23 03:10:11;;;;;;;6.55;5.03;;;;;;;6.96;52.54;101715.31;5015789;28;20038;-71
2022/09/23 03:12:58;;;;;;;9.57;5.63;;;;;;;6.93;52.49;101715.34;5011304;28;20045;-70
2022/09/23 03:15:32;;;;;;;9.88;5.18;;;;;;;6.91;52.45;101705.84;5013197;28;20187;-72
2022/09/23 03:18:09;;;;;;;7.38;5.30;;;;;;;6.93;52.57;101703.19;4998819;28;20057;-70
2022/09/23 03:20:43;;;;;;;7.00;4.10;;;;;;;7.05;52.62;101702.22;5008748;28;20136;-70
2022/09/23 03:23:13;;;;;;;8.25;5.40;;;;;;;7.03;52.24;101694.41;5016204;28;20053;-69
2022/09/23 03:25:41;;;;;;;10.98;5.07;;;;;;;6.93;52.30;101691.94;5011186;28;20114;-71
2022/09/23 03:28:08;;;;;;;6.22;5.55;;;;;;;6.87;52.59;101691.16;5010883;28;20045;-70
2022/09/23 03:30:35;;;;;;;6.05;5.15;;;;;;;6.77;52.86;101686.91;4992241;28;20296;-70
2022/09/23 03:33:04;;;;;;;8.77;5.43;;;;;;;6.78;53.14;101688.66;5013100;28;20042;-69
2022/09/23 03:36:48;;;;;;;7.47;5.47;;;;;;;6.79;53.09;101689.50;5030886;28;20040;-69
2022/09/23 03:38:24;;;;;;;6.30;5.25;;;;;;;6.82;52.88;101679.06;5010057;28;20045;-69
2022/09/23 03:40:53;;;;;;;5.72;3.92;;;;;;;6.80;52.59;101673.91;5010762;28;20056;-68
2022/09/23 03:43:19;;;;;;;8.02;5.50;;;;;;;6.73;52.51;101674.88;5010672;28;20052;-69
2022/09/23 03:45:45;;;;;;;6.78;5.13;;;;;;;6.73;52.88;101674.88;5010186;28;20033;-70
2022/09/23 03:48:13;;;;;;;7.40;4.82;;;;;;;6.69;52.68;101678.38;5010276;28;20052;-70
2022/09/23 03:50:39;;;;;;;6.90;5.32;;;;;;;6.66;52.83;101675.78;5010953;28;20033;-71
2022/09/23 03:53:05;;;;;;;6.18;5.57;;;;;;;6.62;52.72;101681.88;5015128;28;20525;-72
2022/09/23 03:55:31;;;;;;;6.13;4.82;;;;;;;6.63;52.66;101683.63;5011005;28;20401;-70
2022/09/23 03:57:59;;;;;;;11.02;5.97;;;;;;;6.56;52.50;101676.78;5030672;28;20037;-70
2022/09/23 04:00:24;;;;;;;6.68;5.70;;;;;;;6.47;52.92;101673.38;5013522;28;20041;-71
2022/09/23 04:02:50;;;;;;;6.82;5.35;;;;;;;6.44;52.73;101673.44;4990494;28;20057;-70
2022/09/23 04:05:16;;;;;;;7.50;5.45;;;;;;;6.42;53.01;101669.97;5012109;28;20037;-69
2022/09/23 04:07:42;;;;;;;8.55;6.05;;;;;;;6.36;53.25;101670.03;5023866;28;20041;-71
2022/09/23 04:10:08;;;;;;;6.70;5.43;;;;;;;6.32;53.41;101657.09;5026199;28;20020;-70
2022/09/23 04:12:34;;;;;;;5.47;4.97;;;;;;;6.34;53.11;101656.19;5011306;28;20037;-70
2022/09/23 04:15:00;;;;;;;7.95;5.60;;;;;;;6.32;53.69;101652.75;5015098;28;20115;-71
2022/09/23 04:17:25;;;;;;;9.65;5.60;;;;;;;6.32;53.46;101647.56;5008646;28;20698;-71
2022/09/23 04:19:51;;;;;;;5.78;5.20;;;;;;;6.35;53.39;101652.75;5010418;28;20045;-71
2022/09/23 04:22:17;;;;;;;6.00;4.82;;;;;;;6.33;53.16;101648.41;5010316;28;20077;-69
2022/09/23 04:24:43;;;;;;;6.70;5.88;;;;;;;6.28;53.33;101648.47;5012356;28;20053;-72
2022/09/23 04:27:08;;;;;;;6.70;5.60;;;;;;;6.31;53.46;101644.97;5009122;28;20399;-71
2022/09/23 04:29:34;;;;;;;7.55;5.72;;;;;;;6.26;53.50;101652.78;5009437;28;20040;-70
2022/09/23 04:31:59;;;;;;;6.68;5.78;;;;;;;6.20;53.50;101642.47;5008433;28;20520;-71
2022/09/23 04:34:25;;;;;;;6.28;5.70;;;;;;;6.20;53.47;101651.13;5011967;28;20037;-71
2022/09/23 04:36:50;;;;;;;8.85;6.38;;;;;;;6.19;53.92;101648.53;5008306;28;20089;-71
2022/09/23 04:39:16;;;;;;;8.48;6.38;;;;;;;6.17;53.80;101642.47;5011202;28;20111;-71
2022/09/23 04:41:43;;;;;;;7.43;6.18;;;;;;;6.18;53.69;101639.03;5006897;28;20038;-71
2022/09/23 04:44:10;;;;;;;9.32;6.65;;;;;;;6.13;53.95;101635.59;5016283;28;20017;-71
2022/09/23 04:46:37;;;;;;;7.95;5.82;;;;;;;6.12;53.67;101636.47;5007936;28;20083;-70
2022/09/23 04:49:03;;;;;;;6.60;5.70;;;;;;;6.09;53.80;101629.59;5011774;28;20037;-70
2022/09/23 04:51:28;;;;;;;5.78;5.15;;;;;;;6.08;53.66;101626.16;5017652;28;20065;-72
2022/09/23 04:53:54;;;;;;;7.03;6.03;;;;;;;6.12;53.54;101631.28;4997287;28;20075;-71
2022/09/23 04:56:22;;;;;;;9.02;6.75;;;;;;;6.03;53.32;101635.69;5010266;28;20049;-71
2022/09/23 04:58:49;;;;;;;7.78;6.47;;;;;;;6.06;53.17;101635.69;4996095;28;20087;-71
2022/09/23 05:01:23;;;;;;;8.00;4.40;;;;;;;5.98;53.61;101639.22;5016269;28;20068;-71
2022/09/23 05:03:50;;;;;;;6.68;5.65;;;;;;;5.95;53.75;101642.69;5006942;28;20132;-70
2022/09/23 05:06:16;;;;;;;8.20;5.47;;;;;;;5.84;53.80;101649.69;5011626;28;20030;-71
2022/09/23 05:08:47;;;;;;;9.50;6.80;;;;;;;5.86;54.28;101642.78;5008665;28;20056;-71
2022/09/23 05:11:12;;;;;;;7.43;5.50;;;;;;;5.94;54.35;101646.16;5012132;28;20033;-71
2022/09/23 05:13:37;;;;;;;7.03;5.80;;;;;;;5.93;53.75;101647.03;5008737;28;20042;-66
2022/09/23 05:16:09;;;;;;;7.95;6.63;;;;;;;5.86;54.20;101640.19;5011304;28;20061;-69
2022/09/23 05:18:36;;;;;;;7.75;5.82;;;;;;;5.90;54.08;101652.22;5008039;28;20041;-69
2022/09/23 05:21:02;;;;;;;7.45;6.03;;;;;;;5.85;54.25;101643.63;5007726;28;20128;-68
2022/09/23 05:23:28;;;;;;;9.80;6.13;;;;;;;5.89;54.30;101642.75;5009997;28;20037;-69
2022/09/23 05:26:00;;;;;;;6.78;5.72;;;;;;;5.90;54.42;101641.84;5014101;28;20029;-72
2022/09/23 05:28:31;;;;;;;10.70;6.23;;;;;;;5.93;54.16;101641.84;5009053;28;20049;-67
2022/09/23 05:31:15;;;;;;;9.10;5.85;;;;;;;5.98;54.38;101632.28;5009624;28;20029;-71
2022/09/23 05:33:43;;;;;;;7.88;7.05;;;;;;;6.09;54.24;101645.16;5022773;28;20041;-72
2022/09/23 05:36:09;;;;;;;9.38;7.07;;;;;;;6.15;54.01;101639.03;5027897;28;20038;-72
2022/09/23 05:38:34;;;;;;;7.50;6.75;;;;;;;6.19;54.00;101639.00;5008308;28;20055;-72
2022/09/23 05:41:03;;;;;;;10.23;6.00;;;;;;;6.33;53.84;101649.31;5006981;28;20069;-72
2022/09/23 05:43:29;;;;;;;6.38;5.78;;;;;;;6.42;53.63;101644.00;5007710;28;20121;-72
2022/09/23 05:46:04;;;;;;;6.90;6.15;;;;;;;6.62;53.33;101650.72;4997856;28;20124;-72
2022/09/23 05:48:31;;;;;;;6.45;4.88;;;;;;;6.85;53.49;101653.91;5006712;28;20041;-71
2022/09/23 05:50:57;;;;;;;8.48;6.65;;;;;;;6.90;52.72;101657.31;5007922;28;20349;-72
2022/09/23 05:53:22;;;;;;;10.73;5.68;;;;;;;6.83;51.79;101644.44;5007090;28;20042;-72
2022/09/23 05:55:48;;;;;;;6.40;5.70;;;;;;;6.96;52.77;101647.75;5007804;28;20037;-71
2022/09/23 05:58:13;;;;;;;12.32;5.75;;;;;;;7.19;51.74;101650.03;5007870;28;20072;-71
2022/09/23 06:00:40;;;;;;;13.80;5.45;;;;;;;7.25;51.35;101648.22;5006685;28;20037;-71
2022/09/23 06:03:11;;;;;;;8.32;5.32;;;;;;;7.40;51.53;101651.47;5007888;28;20037;-71
2022/09/23 06:05:37;;;;;;;6.90;6.07;;;;;;;7.73;51.29;101650.13;5006579;28;20029;-71
2022/09/23 06:08:02;;;;;;;9.30;5.15;;;;;;;8.33;49.67;101649.13;5007368;28;20461;-71
2022/09/23 06:10:28;;;;;;;7.47;5.05;;;;;;;9.31;48.68;101649.78;5008978;28;20574;-72
2022/09/23 06:12:53;;;;;;;7.40;6.03;;;;;;;9.87;46.04;101651.97;5005209;28;20049;-72
2022/09/23 06:15:19;;;;;;;7.20;5.00;;;;;;;10.11;44.89;101647.06;5008308;28;20041;-71
2022/09/23 06:17:45;;;;;;;4.95;4.55;;;;;;;10.01;44.95;101649.91;4989222;28;20049;-72
2022/09/23 06:20:11;;;;;;;6.10;4.70;;;;;;;9.91;44.88;101650.16;5008361;28;20055;-71
2022/09/23 06:22:37;;;;;;;14.60;8.60;;;;;;;9.82;44.51;101646.03;5008285;28;20037;-72
2022/09/23 06:25:03;;;;;;;8.20;4.65;;;;;;;9.83;44.52;101633.81;4992552;28;20037;-72
2022/09/23 06:27:28;;;;;;;6.15;5.55;;;;;;;9.80;44.65;101640.84;5007354;28;20050;-71
2022/09/23 06:29:54;;;;;;;9.73;6.80;;;;;;;10.11;44.41;101644.44;5003470;28;20040;-72
2022/09/23 06:32:19;;;;;;;6.55;4.20;;;;;;;10.38;42.95;101642.84;5008884;28;20050;-72
2022/09/23 06:34:45;;;;;;;5.80;4.80;;;;;;;10.53;43.15;101650.28;5004540;28;20034;-71
2022/09/23 06:37:11;;;;;;;9.35;3.95;;;;;;;11.20;41.82;101636.19;5008781;28;20175;-71
2022/09/23 06:39:36;;;;;;;4.25;3.85;;;;;;;11.70;40.71;101631.09;5006382;28;20037;-71
2022/09/23 06:42:02;;;;;;;4.63;4.22;;;;;;;11.54;41.10;101635.97;5004463;28;20069;-71
2022/09/23 06:44:27;;;;;;;6.55;3.65;;;;;;;11.78;40.03;101629.13;5008632;28;20045;-71
2022/09/23 06:46:53;;;;;;;4.45;4.05;;;;;;;12.13;38.57;101632.31;5009153;28;20056;-74
2022/09/23 06:49:21;;;;;;;4.47;3.80;;;;;;;11.83;40.16;101627.22;5011223;28;20029;-72
2022/09/23 06:51:47;;;;;;;7.85;4.22;;;;;;;11.44;40.05;101635.44;5015076;28;20063;-72
2022/09/23 06:54:12;;;;;;;5.10;4.20;;;;;;;10.96;41.00;101640.38;5002254;28;20025;-73
2022/09/23 06:56:38;;;;;;;5.60;4.30;;;;;;;11.48;41.02;101638.78;4990507;28;20033;-72
2022/09/23 06:59:04;;;;;;;5.88;3.60;;;;;;;12.37;39.41;101635.00;5000309;28;20044;-71
2022/09/23 07:01:30;;;;;;;6.78;4.22;;;;;;;12.10;38.78;101629.81;5009939;28;20751;-69
2022/09/23 07:03:55;;;;;;;6.38;3.53;;;;;;;12.22;37.80;101639.88;5016220;28;20029;-71
2022/09/23 07:06:21;;;;;;;5.03;3.85;;;;;;;12.55;38.43;101630.84;5010865;28;20333;-70
2022/09/23 07:08:47;;;;;;;5.20;4.70;;;;;;;13.30;36.10;101630.66;5008830;28;20048;-72
2022/09/23 07:11:13;;;;;;;4.88;3.47;;;;;;;14.23;35.92;101628.59;5015234;28;20037;-72
2022/09/23 07:13:40;;;;;;;4.47;3.90;;;;;;;14.30;34.88;101624.78;5010205;28;20457;-71
2022/09/23 07:16:07;;;;;;;4.13;3.42;;;;;;;14.93;34.70;101629.00;5026847;28;20025;-71
2022/09/23 07:18:35;;;;;;;6.00;3.80;;;;;;;15.70;33.13;101623.53;5030442;28;20125;-70
2022/09/23 07:21:09;;;;;;;7.05;3.67;;;;;;;16.83;31.82;101618.63;5010248;28;20060;-71
2022/09/23 07:23:36;;;;;;;8.13;3.42;;;;;;;17.22;29.88;101615.56;5012095;28;20604;-70
2022/09/23 07:26:03;;;;;;;8.88;3.38;;;;;;;17.78;29.85;101613.25;5014843;28;20033;-71
2022/09/23 07:28:28;;;;;;;4.55;3.45;;;;;;;19.15;27.73;101611.94;5009194;28;20406;-71
2022/09/23 07:30:55;;;;;;;11.07;3.90;;;;;;;19.64;27.76;101617.53;5015178;28;20033;-71
2022/09/23 07:33:20;;;;;;;5.18;3.00;;;;;;;19.44;26.86;101605.56;5008161;28;20037;-71
2022/09/23 07:35:46;;;;;;;3.65;3.35;;;;;;;19.30;27.96;101605.63;5011007;28;20060;-72
2022/09/23 07:38:11;;;;;;;5.38;3.55;;;;;;;19.04;27.26;101607.34;5009409;28;20062;-71
2022/09/23 07:40:41;;;;;;;4.13;3.22;;;;;;;18.71;28.74;101618.25;5016410;28;20041;-72
2022/09/23 07:43:07;;;;;;;3.83;2.92;;;;;;;19.18;27.54;101607.28;5015698;28;20080;-71
2022/09/23 07:45:32;;;;;;;3.75;3.33;;;;;;;19.67;27.20;101609.38;5013669;28;20143;-72
2022/09/23 07:47:59;;;;;;;4.10;3.30;;;;;;;19.57;27.11;101610.94;4991323;28;21110;-73
2022/09/23 07:50:24;;;;;;;2.72;2.53;;;;;;;20.00;26.90;101605.38;5011120;28;20385;-72
2022/09/23 07:52:53;;;;;;;6.35;3.78;;;;;;;20.98;24.86;101608.28;5009502;28;20053;-72
2022/09/23 07:55:19;;;;;;;4.55;2.85;;;;;;;21.83;25.13;101616.13;5016650;28;20042;-71
2022/09/23 07:57:45;;;;;;;3.50;2.35;;;;;;;23.20;23.00;101608.00;5008975;28;20041;-72
2022/09/23 08:00:12;;;;;;;4.78;3.40;;;;;;;22.54;23.39;101613.34;5009328;28;20040;-72
2022/09/23 08:02:38;;;;;;;3.95;3.17;;;;;;;21.66;23.85;101603.28;5011842;28;20049;-71
2022/09/23 08:05:05;;;;;;;3.75;3.35;;;;;;;21.34;24.56;101599.38;5009564;28;20041;-72
2022/09/23 08:07:33;;;;;;;4.05;2.92;;;;;;;21.79;25.64;101606.69;5008743;28;20061;-70
2022/09/23 08:10:00;;;;;;;4.05;3.08;;;;;;;22.35;24.28;101608.59;4997075;28;21185;-71
2022/09/23 08:12:28;;;;;;;5.38;3.85;;;;;;;22.23;23.59;101607.75;5011852;28;20068;-71
2022/09/23 08:14:53;;;;;;;4.15;3.42;;;;;;;22.92;23.12;101612.09;5014203;28;20124;-71
2022/09/23 08:17:19;;;;;;;3.28;2.40;;;;;;;23.83;22.53;101608.94;5010104;28;20510;-71
2022/09/23 08:19:44;;;;;;;4.18;3.42;;;;;;;24.91;20.96;101601.41;5012775;28;20044;-72
2022/09/23 08:22:11;;;;;;;6.95;3.25;;;;;;;24.93;21.87;101597.59;5009190;28;20485;-72
2022/09/23 08:24:36;;;;;;;4.68;4.20;;;;;;;22.18;23.45;101608.13;4991582;28;20063;-72
2022/09/23 08:27:02;;;;;;;5.80;3.53;;;;;;;22.85;23.44;101603.75;4990261;28;20099;-71
2022/09/23 08:29:28;;;;;;;4.75;4.10;;;;;;;23.32;23.08;101601.69;5010058;28;20048;-71
2022/09/23 08:31:53;;;;;;;3.17;2.92;;;;;;;22.87;23.61;101607.13;5007576;28;20050;-71
2022/09/23 08:34:20;;;;;;;7.70;4.07;;;;;;;22.67;24.79;101606.03;5010371;28;20124;-71
2022/09/23 08:36:46;;;;;;;6.45;4.93;;;;;;;21.60;24.76;101599.28;5007968;28;20040;-71
2022/09/23 08:39:14;;;;;;;9.52;6.53;;;;;;;19.51;27.53;101598.06;5031676;28;20033;-71
2022/09/23 08:41:52;;;;;;;6.30;3.83;;;;;;;18.66;29.25;101600.00;5007187;28;20083;-71
2022/09/23 08:44:31;;;;;;;6.30;3.90;;;;;;;19.97;28.46;101604.72;5009678;28;20030;-71
2022/09/23 08:47:22;;;;;;;6.07;4.40;;;;;;;18.99;28.74;101599.69;5007242;28;20050;-71
2022/09/23 08:50:07;;;;;;;4.28;3.95;;;;;;;18.60;30.34;101595.09;5008205;28;20091;-74
2022/09/23 08:52:53;;;;;;;6.78;4.50;;;;;;;18.52;30.75;101594.72;5009849;28;20214;-72
2022/09/23 08:55:28;;;;;;;7.47;3.80;;;;;;;18.18;30.44;101592.31;5007907;28;20601;-72
2022/09/23 08:58:17;;;;;;;7.90;4.25;;;;;;;17.73;31.35;101599.44;5006990;28;20095;-73
2022/09/23 09:00:48;;;;;;;7.35;4.60;;;;;;;17.77;31.92;101584.25;5008841;28;20041;-71
2022/09/23 09:03:23;;;;;;;6.53;4.20;;;;;;;17.86;31.62;101588.97;5007851;28;20065;-71
2022/09/23 09:05:51;;;;;;;7.45;4.00;;;;;;;17.65;32.25;101581.38;5008132;28;20068;-72
2022/09/23 09:08:25;;;;;;;6.07;4.75;;;;;;;17.35;31.87;101583.13;5007494;28;20037;-71
2022/09/23 09:10:54;;;;;;;5.80;5.10;;;;;;;17.17;33.16;101579.75;5008622;28;20320;-71
2022/09/23 09:13:30;;;;;;;5.05;4.05;;;;;;;17.52;32.39;101580.41;5005825;28;20037;-71
2022/09/23 09:16:24;;;;;;;4.60;3.88;;;;;;;17.33;31.76;101574.44;5010013;28;20026;-72
2022/09/23 09:18:57;;;;;;;6.40;4.40;;;;;;;17.17;32.49;101577.97;5007786;28;20038;-72
2022/09/23 09:21:36;;;;;;;5.93;3.42;;;;;;;16.81;32.02;101578.25;5008832;28;20045;-72
2022/09/23 09:24:15;;;;;;;3.75;3.17;;;;;;;17.12;32.83;101581.81;5009037;28;20045;-72
2022/09/23 09:26:40;;;;;;;5.28;3.80;;;;;;;17.40;31.87;101575.78;5007799;28;20486;-72
2022/09/23 09:29:35;;;;;;;8.25;4.68;;;;;;;17.78;31.65;101570.06;5009641;28;20116;-71
2022/09/23 09:32:22;;;;;;;5.90;4.57;;;;;;;17.82;30.98;101571.59;5008079;28;20438;-71
2022/09/23 09:34:56;;;;;;;5.47;4.32;;;;;;;17.92;31.44;101567.47;5005373;28;20593;-71
2022/09/23 09:37:29;;;;;;;6.32;4.43;;;;;;;18.21;31.66;101560.44;5007356;28;20148;-71
2022/09/23 09:39:55;;;;;;;4.85;4.03;;;;;;;18.02;30.79;101568.59;5007877;28;20524;-72
2022/09/23 09:42:50;;;;;;;4.97;4.07;;;;;;;17.31;31.15;101565.75;5007684;28;20041;-71
2022/09/23 09:45:27;;;;;;;7.38;4.15;;;;;;;17.23;32.31;101564.41;4985162;28;20066;-71
2022/09/23 09:48:02;;;;;;;6.35;4.40;;;;;;;17.53;31.50;101571.53;5005647;28;20049;-71
2022/09/23 09:50:46;;;;;;;7.90;4.18;;;;;;;17.60;31.61;101562.31;5011355;28;20040;-71
2022/09/23 09:53:21;;;;;;;8.55;4.60;;;;;;;17.53;32.49;101566.25;5005255;28;20069;-73
2022/09/23 09:55:58;;;;;;;5.18;3.97;;;;;;;18.04;31.87;101558.78;5028590;28;20482;-72
2022/09/23 09:58:26;;;;;;;7.80;4.68;;;;;;;18.17;31.78;101561.53;5007674;28;20056;-72
2022/09/23 10:00:52;;;;;;;5.35;4.05;;;;;;;18.18;31.28;101559.72;5005829;28;20034;-72
2022/09/23 10:03:40;;;;;;;9.40;4.00;;;;;;;18.28;30.93;101558.25;5012430;28;20715;-72
2022/09/23 10:06:23;;;;;;;7.20;4.40;;;;;;;18.25;30.54;101553.13;5013432;28;20042;-72
2022/09/23 10:09:08;;;;;;;5.38;4.68;;;;;;;18.03;31.58;101553.59;5007011;28;20045;-72
2022/09/23 10:11:33;;;;;;;4.82;4.28;;;;;;;17.62;31.91;101554.28;5005474;28;20160;-71
2022/09/23 10:13:59;;;;;;;7.03;4.25;;;;;;;17.74;32.02;101552.69;5007466;28;21463;-71
2022/09/23 10:16:25;;;;;;;6.68;4.28;;;;;;;17.35;32.74;101557.56;5010443;28;20046;-71
2022/09/23 10:18:55;;;;;;;6.18;4.43;;;;;;;17.33;32.95;101551.50;5005119;28;20472;-71
2022/09/23 10:21:22;;;;;;;7.25;5.47;;;;;;;17.18;33.05;101558.56;5032664;28;20453;-71
2022/09/23 10:24:00;;;;;;;8.10;4.30;;;;;;;17.54;32.54;101549.47;5016251;28;20509;-71
2022/09/23 10:26:50;;;;;;;6.55;5.43;;;;;;;17.59;32.40;101550.03;5012697;28;20041;-71
2022/09/23 10:29:40;;;;;;;7.75;5.43;;;;;;;17.16;33.33;101547.22;5011349;28;20053;-72
2022/09/23 10:32:24;;;;;;;8.15;3.85;;;;;;;17.26;33.00;101549.31;5010547;28;20103;-72
2022/09/23 10:34:55;;;;;;;5.75;4.10;;;;;;;17.22;33.29;101546.00;5033007;28;20486;-71
2022/09/23 10:37:31;;;;;;;5.00;4.05;;;;;;;16.99;33.40;101548.16;5012507;28;20088;-71
2022/09/23 10:48:54;;;;;;;7.07;4.25;;;;;;;16.17;35.57;101535.06;5010665;28;20095;-72
2022/09/23 10:51:38;;;;;;;5.20;4.30;;;;;;;16.31;35.93;101532.56;5000899;28;20092;-72
2022/09/23 10:54:39;;;;;;;8.18;5.05;;;;;;;16.09;34.70;101537.28;5013317;28;20049;-72
2022/09/23 10:57:39;;;;;;;5.72;3.80;;;;;;;15.95;36.09;101524.75;5008771;28;20029;-71
2022/09/23 11:00:31;;;;;;;7.35;5.00;;;;;;;16.03;36.06;101527.03;4996957;28;20030;-72
2022/09/23 11:02:59;;;;;;;;;;;;;;;16.02;36.70;101531.47;4995819;28;20045;-72
2022/09/23 11:06:04;;;;;;;5.88;4.53;;;;;;;16.04;35.52;101528.72;4995126;28;19925;-72
2022/09/23 11:08:51;;;;;;;10.18;5.47;;;;;;;16.26;35.73;101533.72;5004147;28;20381;-72
2022/09/23 11:11:54;;;;;;;7.15;5.00;;;;;;;16.39;35.14;101530.34;5008388;28;20584;-72
2022/09/23 11:14:22;;;;;;;7.50;5.38;;;;;;;16.37;35.65;101534.00;5007403;28;20047;-71
2022/09/23 11:17:00;;;;;;;5.85;4.35;;;;;;;16.75;34.97;101531.06;5010118;28;20463;-72
2022/09/23 11:19:50;;;;;;;7.18;4.47;;;;;;;16.65;34.82;101525.44;5014389;28;20041;-71
2022/09/23 11:22:53;;;;;;;6.75;4.63;;;;;;;16.30;35.15;101530.84;5007577;28;20050;-72
2022/09/23 11:25:37;;;;;;;5.15;4.45;;;;;;;16.36;36.36;101522.59;4999040;28;20513;-70
2022/09/23 11:28:08;;;;;;;7.20;5.00;;;;;;;16.49;35.30;101520.16;5005755;28;20066;-71
2022/09/23 11:31:13;;;;;;;7.00;4.68;;;;;;;16.75;34.98;101513.44;5014331;28;20033;-71
2022/09/23 11:33:57;;;;;;;7.15;4.60;;;;;;;17.29;33.08;101520.06;4992897;28;20062;-71
2022/09/23 11:36:27;;;;;;;5.47;4.10;;;;;;;17.12;33.72;101515.78;5008986;28;20033;-72
2022/09/23 11:38:55;;;;;;;6.97;4.90;;;;;;;16.87;34.26;101516.31;5005283;28;20096;-71
2022/09/23 11:41:34;;;;;;;10.43;5.07;;;;;;;16.54;34.83;101509.34;5008485;28;20486;-72
2022/09/23 11:44:07;;;;;;;5.60;4.50;;;;;;;16.63;35.23;101500.91;4996407;28;20231;-70
2022/09/23 11:46:44;;;;;;;9.38;4.82;;;;;;;16.78;34.26;101509.81;5007379;28;20108;-71
2022/09/23 11:49:31;;;;;;;8.73;4.57;;;;;;;16.96;35.24;101498.19;5009121;28;20037;-71
2022/09/23 11:52:10;;;;;;;9.93;4.65;;;;;;;16.81;34.17;101507.81;5011724;28;20050;-71
2022/09/23 11:55:08;;;;;;;9.60;5.15;;;;;;;16.68;34.18;101508.56;5012228;28;20465;-72
2022/09/23 11:57:47;;;;;;;6.95;4.75;;;;;;;17.07;34.12;101505.50;4964858;28;20506;-70
2022/09/23 12:00:20;;;;;;;11.60;5.18;;;;;;;16.87;35.41;101503.13;5013338;28;20450;-71
2022/09/23 12:03:04;;;;;;;7.35;4.80;;;;;;;17.18;34.66;101508.38;5006544;28;20685;-71